sensor_id;sensor_type;location;lat;lon;timestamp;pressure;altitude;pressure_sealevel;temperature;humidity
19259;BME280;9763;48.780;9.212;2023-11-22T00:03:04;98688.03;;;11.83;81.50
19259;BME280;9763;48.780;9.212;2023-11-22T00:06:29;98694.25;;;11.82;82.40
19259;BME280;9763;48.780;9.212;2023-11-22T00:09:53;98702.38;;;11.78;82.06
19259;BME280;9763;48.780;9.212;2023-11-22T00:13:17;98700.53;;;11.66;81.19
19259;BME280;9763;48.780;9.212;2023-11-22T00:16:40;98708.31;;;11.53;81.35
19259;BME280;9763;48.780;9.212;2023-11-22T00:20:07;98699.03;;;11.35;81.56
19259;BME280;9763;48.780;9.212;2023-11-22T00:23:32;98716.03;;;11.28;81.51
19259;BME280;9763;48.780;9.212;2023-11-22T00:26:55;98725.38;;;11.17;81.18
19259;BME280;9763;48.780;9.212;2023-11-22T00:30:19;98715.59;;;11.07;80.81
19259;BME280;9763;48.780;9.212;2023-11-22T00:33:43;98722.97;;;11.00;81.69
19259;BME280;9763;48.780;9.212;2023-11-22T00:37:06;98724.19;;;10.95;81.27
19259;BME280;9763;48.780;9.212;2023-11-22T00:40:32;98725.31;;;10.91;81.87
19259;BME280;9763;48.780;9.212;2023-11-22T00:43:55;98740.13;;;10.90;81.10
19259;BME280;9763;48.780;9.212;2023-11-22T00:47:19;98740.22;;;10.89;81.56
19259;BME280;9763;48.780;9.212;2023-11-22T00:50:43;98747.97;;;10.90;82.24
19259;BME280;9763;48.780;9.212;2023-11-22T00:54:08;98751.50;;;10.89;81.71
19259;BME280;9763;48.780;9.212;2023-11-22T00:57:33;98750.22;;;10.82;82.07
19259;BME280;9763;48.780;9.212;2023-11-22T01:00:56;98773.22;;;10.75;81.43
19259;BME280;9763;48.780;9.212;2023-11-22T01:04:20;98775.28;;;10.70;81.50
19259;BME280;9763;48.780;9.212;2023-11-22T01:07:44;98772.84;;;10.67;81.28
19259;BME280;9763;48.780;9.212;2023-11-22T01:11:08;98786.16;;;10.63;81.04
19259;BME280;9763;48.780;9.212;2023-11-22T01:14:33;98788.22;;;10.58;81.47
19259;BME280;9763;48.780;9.212;2023-11-22T01:17:57;98791.75;;;10.57;81.65
19259;BME280;9763;48.780;9.212;2023-11-22T01:21:20;98799.94;;;10.51;81.44
19259;BME280;9763;48.780;9.212;2023-11-22T01:24:45;98801.81;;;10.49;81.03
19259;BME280;9763;48.780;9.212;2023-11-22T01:28:08;98796.28;;;10.39;80.64
19259;BME280;9763;48.780;9.212;2023-11-22T01:31:34;98809.31;;;10.39;81.21
19259;BME280;9763;48.780;9.212;2023-11-22T01:34:59;98800.84;;;10.35;80.45
19259;BME280;9763;48.780;9.212;2023-11-22T01:38:24;98806.63;;;10.40;80.48
19259;BME280;9763;48.780;9.212;2023-11-22T01:41:48;98818.94;;;10.38;80.81
19259;BME280;9763;48.780;9.212;2023-11-22T01:45:13;98824.31;;;10.35;80.78
19259;BME280;9763;48.780;9.212;2023-11-22T01:48:39;98828.97;;;10.30;80.79
19259;BME280;9763;48.780;9.212;2023-11-22T01:52:04;98823.91;;;10.27;80.76
19259;BME280;9763;48.780;9.212;2023-11-22T01:55:28;98836.03;;;10.28;80.06
19259;BME280;9763;48.780;9.212;2023-11-22T01:58:54;98842.00;;;10.30;79.84
19259;BME280;9763;48.780;9.212;2023-11-22T02:02:20;98843.94;;;10.27;79.45
19259;BME280;9763;48.780;9.212;2023-11-22T02:05:46;98850.34;;;10.21;80.06
19259;BME280;9763;48.780;9.212;2023-11-22T02:09:10;98860.06;;;10.18;79.77
19259;BME280;9763;48.780;9.212;2023-11-22T02:12:37;98862.97;;;10.13;79.26
19259;BME280;9763;48.780;9.212;2023-11-22T02:16:02;98861.69;;;10.04;79.66
19259;BME280;9763;48.780;9.212;2023-11-22T02:19:26;98881.53;;;10.07;79.23
19259;BME280;9763;48.780;9.212;2023-11-22T02:22:54;98886.84;;;10.05;78.87
19259;BME280;9763;48.780;9.212;2023-11-22T02:26:21;98887.13;;;10.01;79.46
19259;BME280;9763;48.780;9.212;2023-11-22T02:29:45;98895.03;;;9.99;78.87
19259;BME280;9763;48.780;9.212;2023-11-22T02:33:09;98897.63;;;9.99;79.25
19259;BME280;9763;48.780;9.212;2023-11-22T02:36:33;98900.22;;;9.99;79.35
19259;BME280;9763;48.780;9.212;2023-11-22T02:40:05;98895.09;;;9.98;79.29
19259;BME280;9763;48.780;9.212;2023-11-22T02:43:30;98897.09;;;9.93;79.22
19259;BME280;9763;48.780;9.212;2023-11-22T02:46:53;98899.91;;;9.90;79.43
19259;BME280;9763;48.780;9.212;2023-11-22T02:50:21;98870.03;;;9.64;79.33
19259;BME280;9763;48.780;9.212;2023-11-22T02:53:45;98911.31;;;9.87;78.71
19259;BME280;9763;48.780;9.212;2023-11-22T02:57:11;98916.63;;;9.86;78.67
19259;BME280;9763;48.780;9.212;2023-11-22T03:00:36;98916.84;;;9.81;78.50
19259;BME280;9763;48.780;9.212;2023-11-22T03:04:00;98925.09;;;9.73;78.90
19259;BME280;9763;48.780;9.212;2023-11-22T03:07:25;98935.16;;;9.64;79.04
19259;BME280;9763;48.780;9.212;2023-11-22T03:10:48;98937.16;;;9.59;78.84
19259;BME280;9763;48.780;9.212;2023-11-22T03:14:13;98930.13;;;9.44;78.53
19259;BME280;9763;48.780;9.212;2023-11-22T03:17:39;98941.59;;;9.41;79.21
19259;BME280;9763;48.780;9.212;2023-11-22T03:21:05;98953.31;;;9.32;78.55
19259;BME280;9763;48.780;9.212;2023-11-22T03:24:29;98958.00;;;9.26;79.02
19259;BME280;9763;48.780;9.212;2023-11-22T03:27:53;98966.41;;;9.31;78.87
19259;BME280;9763;48.780;9.212;2023-11-22T03:31:17;98970.69;;;9.32;79.20
19259;BME280;9763;48.780;9.212;2023-11-22T03:34:42;98969.84;;;9.31;78.76
19259;BME280;9763;48.780;9.212;2023-11-22T03:38:06;98987.41;;;9.28;78.81
19259;BME280;9763;48.780;9.212;2023-11-22T03:41:31;98961.22;;;9.14;78.93
19259;BME280;9763;48.780;9.212;2023-11-22T03:44:55;98992.38;;;9.32;78.36
19259;BME280;9763;48.780;9.212;2023-11-22T03:48:21;98995.75;;;9.34;78.43
19259;BME280;9763;48.780;9.212;2023-11-22T03:51:48;99001.72;;;9.36;78.52
19259;BME280;9763;48.780;9.212;2023-11-22T03:55:12;99007.16;;;9.32;78.23
19259;BME280;9763;48.780;9.212;2023-11-22T03:58:35;99024.25;;;9.37;78.80
19259;BME280;9763;48.780;9.212;2023-11-22T04:01:59;99018.19;;;9.37;78.64
19259;BME280;9763;48.780;9.212;2023-11-22T04:05:23;99002.13;;;9.29;78.02
19259;BME280;9763;48.780;9.212;2023-11-22T04:08:48;99007.16;;;9.32;78.25
19259;BME280;9763;48.780;9.212;2023-11-22T04:12:12;99012.38;;;9.32;78.35
19259;BME280;9763;48.780;9.212;2023-11-22T04:15:36;99023.63;;;9.32;78.44
19259;BME280;9763;48.780;9.212;2023-11-22T04:19:00;99017.50;;;9.33;77.91
19259;BME280;9763;48.780;9.212;2023-11-22T04:22:24;99027.69;;;9.38;77.86
19259;BME280;9763;48.780;9.212;2023-11-22T04:25:49;99026.59;;;9.42;78.70
19259;BME280;9763;48.780;9.212;2023-11-22T04:29:12;99034.41;;;9.42;78.53
19259;BME280;9763;48.780;9.212;2023-11-22T04:32:36;99038.66;;;9.45;78.06
19259;BME280;9763;48.780;9.212;2023-11-22T04:36:01;99045.47;;;9.47;78.72
19259;BME280;9763;48.780;9.212;2023-11-22T04:39:24;99048.22;;;9.44;77.99
19259;BME280;9763;48.780;9.212;2023-11-22T04:42:50;99048.47;;;9.39;78.24
19259;BME280;9763;48.780;9.212;2023-11-22T04:46:13;99056.50;;;9.35;78.34
19259;BME280;9763;48.780;9.212;2023-11-22T04:49:37;99062.56;;;9.35;77.79
19259;BME280;9763;48.780;9.212;2023-11-22T04:53:01;99060.94;;;9.33;78.53
19259;BME280;9763;48.780;9.212;2023-11-22T04:56:25;99073.13;;;9.32;77.74
19259;BME280;9763;48.780;9.212;2023-11-22T04:59:50;99073.28;;;9.29;77.88
19259;BME280;9763;48.780;9.212;2023-11-22T05:03:14;99068.22;;;9.26;77.88
19259;BME280;9763;48.780;9.212;2023-11-22T05:06:38;99068.44;;;9.22;77.75
19259;BME280;9763;48.780;9.212;2023-11-22T05:10:02;99077.41;;;9.16;78.00
19259;BME280;9763;48.780;9.212;2023-11-22T05:13:25;99081.72;;;9.17;78.14
19259;BME280;9763;48.780;9.212;2023-11-22T05:16:50;99092.03;;;9.19;78.32
19259;BME280;9763;48.780;9.212;2023-11-22T05:20:14;99082.19;;;9.07;78.45
19259;BME280;9763;48.780;9.212;2023-11-22T05:23:38;99101.91;;;9.12;78.54
19259;BME280;9763;48.780;9.212;2023-11-22T05:27:05;99105.34;;;9.13;78.46
19259;BME280;9763;48.780;9.212;2023-11-22T05:30:29;99119.28;;;9.12;78.05
19259;BME280;9763;48.780;9.212;2023-11-22T05:33:54;99113.16;;;9.13;77.98
19259;BME280;9763;48.780;9.212;2023-11-22T05:37:18;99111.34;;;9.15;78.30
19259;BME280;9763;48.780;9.212;2023-11-22T05:40:42;99107.88;;;9.14;78.20
19259;BME280;9763;48.780;9.212;2023-11-22T05:44:05;99116.63;;;9.13;78.48
19259;BME280;9763;48.780;9.212;2023-11-22T05:47:30;99106.97;;;9.15;78.36
19259;BME280;9763;48.780;9.212;2023-11-22T05:50:56;99111.16;;;9.18;78.39
19259;BME280;9763;48.780;9.212;2023-11-22T05:54:19;99118.06;;;9.19;78.41
19259;BME280;9763;48.780;9.212;2023-11-22T05:57:44;99126.03;;;9.16;78.10
19259;BME280;9763;48.780;9.212;2023-11-22T06:01:08;99127.31;;;9.07;78.06
19259;BME280;9763;48.780;9.212;2023-11-22T06:04:34;99135.88;;;9.09;77.61
19259;BME280;9763;48.780;9.212;2023-11-22T06:08:01;99147.22;;;9.08;78.39
19259;BME280;9763;48.780;9.212;2023-11-22T06:11:25;99150.66;;;9.09;78.18
19259;BME280;9763;48.780;9.212;2023-11-22T06:14:49;99156.84;;;9.06;78.36
19259;BME280;9763;48.780;9.212;2023-11-22T06:18:12;99168.34;;;9.02;77.66
19259;BME280;9763;48.780;9.212;2023-11-22T06:21:37;99175.38;;;9.00;78.53
19259;BME280;9763;48.780;9.212;2023-11-22T06:25:04;99186.72;;;8.99;78.47
19259;BME280;9763;48.780;9.212;2023-11-22T06:28:29;99185.03;;;8.98;78.59
19259;BME280;9763;48.780;9.212;2023-11-22T06:31:52;99192.91;;;8.96;78.40
19259;BME280;9763;48.780;9.212;2023-11-22T06:35:16;99191.50;;;8.89;78.28
19259;BME280;9763;48.780;9.212;2023-11-22T06:38:40;99196.56;;;8.92;78.54
19259;BME280;9763;48.780;9.212;2023-11-22T06:42:05;99189.81;;;8.88;78.51
19259;BME280;9763;48.780;9.212;2023-11-22T06:45:30;99188.13;;;8.87;78.10
19259;BME280;9763;48.780;9.212;2023-11-22T06:48:54;99198.25;;;8.93;78.59
19259;BME280;9763;48.780;9.212;2023-11-22T06:52:19;99200.16;;;8.90;78.11
19259;BME280;9763;48.780;9.212;2023-11-22T06:55:43;99207.91;;;8.91;78.15
19259;BME280;9763;48.780;9.212;2023-11-22T06:59:09;99222.66;;;8.91;78.67
19259;BME280;9763;48.780;9.212;2023-11-22T07:02:34;99221.97;;;8.87;78.40
19259;BME280;9763;48.780;9.212;2023-11-22T07:05:57;99225.34;;;8.89;77.66
19259;BME280;9763;48.780;9.212;2023-11-22T07:09:21;99227.16;;;8.87;77.48
19259;BME280;9763;48.780;9.212;2023-11-22T07:12:45;99220.41;;;8.83;77.48
19259;BME280;9763;48.780;9.212;2023-11-22T07:16:13;99224.44;;;8.70;77.05
19259;BME280;9763;48.780;9.212;2023-11-22T07:19:38;99227.34;;;8.64;77.21
19259;BME280;9763;48.780;9.212;2023-11-22T07:23:08;99241.44;;;8.58;76.94
19259;BME280;9763;48.780;9.212;2023-11-22T07:26:36;99234.00;;;8.51;77.14
19259;BME280;9763;48.780;9.212;2023-11-22T07:30:01;99247.84;;;8.51;77.80
19259;BME280;9763;48.780;9.212;2023-11-22T07:33:27;99265.25;;;8.49;77.32
19259;BME280;9763;48.780;9.212;2023-11-22T07:36:52;99267.88;;;8.49;77.59
19259;BME280;9763;48.780;9.212;2023-11-22T07:40:18;99276.69;;;8.45;77.74
19259;BME280;9763;48.780;9.212;2023-11-22T07:43:45;99284.50;;;8.45;77.67
19259;BME280;9763;48.780;9.212;2023-11-22T07:47:10;99282.84;;;8.44;78.28
19259;BME280;9763;48.780;9.212;2023-11-22T07:50:37;99299.38;;;8.43;78.31
19259;BME280;9763;48.780;9.212;2023-11-22T07:54:01;99303.84;;;8.40;78.14
19259;BME280;9763;48.780;9.212;2023-11-22T07:57:25;99296.94;;;8.39;78.43
19259;BME280;9763;48.780;9.212;2023-11-22T08:00:49;99296.81;;;8.42;77.98
19259;BME280;9763;48.780;9.212;2023-11-22T08:04:13;99300.31;;;8.41;78.36
19259;BME280;9763;48.780;9.212;2023-11-22T08:07:39;99295.97;;;8.41;78.17
19259;BME280;9763;48.780;9.212;2023-11-22T08:11:04;99293.09;;;8.47;77.84
19259;BME280;9763;48.780;9.212;2023-11-22T08:14:27;99292.97;;;8.50;77.61
19259;BME280;9763;48.780;9.212;2023-11-22T08:17:52;99301.50;;;8.54;77.82
19259;BME280;9763;48.780;9.212;2023-11-22T08:21:16;99303.13;;;8.56;78.14
19259;BME280;9763;48.780;9.212;2023-11-22T08:24:41;99305.59;;;8.59;78.05
19259;BME280;9763;48.780;9.212;2023-11-22T08:28:06;99307.28;;;8.60;78.00
19259;BME280;9763;48.780;9.212;2023-11-22T08:31:30;99302.28;;;8.56;77.83
19259;BME280;9763;48.780;9.212;2023-11-22T08:34:54;99309.94;;;8.59;78.04
19259;BME280;9763;48.780;9.212;2023-11-22T08:38:19;99308.13;;;8.61;77.31
19259;BME280;9763;48.780;9.212;2023-11-22T08:41:44;99302.88;;;8.62;77.72
19259;BME280;9763;48.780;9.212;2023-11-22T08:45:09;99302.81;;;8.64;77.50
19259;BME280;9763;48.780;9.212;2023-11-22T08:48:34;99307.88;;;8.67;77.55
19259;BME280;9763;48.780;9.212;2023-11-22T08:52:03;99309.41;;;8.71;77.90
19259;BME280;9763;48.780;9.212;2023-11-22T08:55:30;99309.34;;;8.73;77.30
19259;BME280;9763;48.780;9.212;2023-11-22T08:58:57;99310.19;;;8.73;77.61
19259;BME280;9763;48.780;9.212;2023-11-22T09:02:21;99318.75;;;8.77;77.56
19259;BME280;9763;48.780;9.212;2023-11-22T09:05:46;99317.81;;;8.78;77.07
19259;BME280;9763;48.780;9.212;2023-11-22T09:09:09;99315.00;;;8.82;77.62
19259;BME280;9763;48.780;9.212;2023-11-22T09:12:38;99302.00;;;8.82;77.24
19259;BME280;9763;48.780;9.212;2023-11-22T09:16:06;99297.44;;;8.87;77.57
19259;BME280;9763;48.780;9.212;2023-11-22T09:19:31;99309.25;;;8.94;77.43
19259;BME280;9763;48.780;9.212;2023-11-22T09:22:56;99317.78;;;8.98;77.36
19259;BME280;9763;48.780;9.212;2023-11-22T09:26:19;99312.47;;;9.01;76.97
19259;BME280;9763;48.780;9.212;2023-11-22T09:29:43;99315.84;;;9.03;77.63
19259;BME280;9763;48.780;9.212;2023-11-22T09:33:10;99312.09;;;9.09;77.46
19259;BME280;9763;48.780;9.212;2023-11-22T09:36:35;99319.78;;;9.12;76.94
19259;BME280;9763;48.780;9.212;2023-11-22T09:39:59;99328.53;;;9.11;76.77
19259;BME280;9763;48.780;9.212;2023-11-22T09:43:26;99322.28;;;9.15;77.16
19259;BME280;9763;48.780;9.212;2023-11-22T09:46:53;99322.22;;;9.16;77.15
19259;BME280;9763;48.780;9.212;2023-11-22T09:50:26;99335.22;;;9.16;76.64
19259;BME280;9763;48.780;9.212;2023-11-22T09:53:55;99337.97;;;9.13;76.57
19259;BME280;9763;48.780;9.212;2023-11-22T09:57:22;99350.19;;;9.11;76.79
19259;BME280;9763;48.780;9.212;2023-11-22T10:00:48;99353.72;;;9.10;76.53
19259;BME280;9763;48.780;9.212;2023-11-22T10:04:12;99358.13;;;9.08;76.36
19259;BME280;9763;48.780;9.212;2023-11-22T10:07:37;99372.00;;;9.09;76.90
19259;BME280;9763;48.780;9.212;2023-11-22T10:11:01;99381.25;;;9.16;76.75
19259;BME280;9763;48.780;9.212;2023-11-22T10:14:27;99380.34;;;9.17;76.83
19259;BME280;9763;48.780;9.212;2023-11-22T10:17:55;99379.34;;;9.19;77.29
19259;BME280;9763;48.780;9.212;2023-11-22T10:21:22;99381.19;;;9.17;77.03
19259;BME280;9763;48.780;9.212;2023-11-22T10:24:48;99380.13;;;9.21;77.28
19259;BME280;9763;48.780;9.212;2023-11-22T10:28:12;99368.94;;;9.19;76.54
19259;BME280;9763;48.780;9.212;2023-11-22T10:31:38;99370.97;;;9.13;75.61
19259;BME280;9763;48.780;9.212;2023-11-22T10:35:06;99373.81;;;9.07;76.75
19259;BME280;9763;48.780;9.212;2023-11-22T10:38:29;99372.00;;;9.09;76.74
19259;BME280;9763;48.780;9.212;2023-11-22T10:41:55;99361.47;;;9.12;77.12
19259;BME280;9763;48.780;9.212;2023-11-22T10:45:21;99364.84;;;9.14;77.12
19259;BME280;9763;48.780;9.212;2023-11-22T10:48:45;99369.66;;;9.23;77.04
19259;BME280;9763;48.780;9.212;2023-11-22T10:52:13;99376.34;;;9.28;77.01
19259;BME280;9763;48.780;9.212;2023-11-22T10:55:42;99373.34;;;9.37;77.01
19259;BME280;9763;48.780;9.212;2023-11-22T10:59:14;99369.81;;;9.38;77.10
19259;BME280;9763;48.780;9.212;2023-11-22T11:02:44;99379.94;;;9.45;76.88
19259;BME280;9763;48.780;9.212;2023-11-22T11:06:12;99379.09;;;9.44;76.71
19259;BME280;9763;48.780;9.212;2023-11-22T11:09:38;99396.44;;;9.45;76.86
19259;BME280;9763;48.780;9.212;2023-11-22T11:13:02;99396.31;;;9.48;77.44
19259;BME280;9763;48.780;9.212;2023-11-22T11:16:29;99403.47;;;9.43;76.90
19259;BME280;9763;48.780;9.212;2023-11-22T11:19:54;99396.78;;;9.37;76.72
19259;BME280;9763;48.780;9.212;2023-11-22T11:23:21;99400.38;;;9.35;76.94
19259;BME280;9763;48.780;9.212;2023-11-22T11:26:48;99399.66;;;9.31;77.25
19259;BME280;9763;48.780;9.212;2023-11-22T11:30:46;99402.25;;;9.31;77.32
19259;BME280;9763;48.780;9.212;2023-11-22T11:34:12;99390.22;;;9.29;76.79
19259;BME280;9763;48.780;9.212;2023-11-22T11:37:37;99397.09;;;9.30;77.34
19259;BME280;9763;48.780;9.212;2023-11-22T11:41:09;99395.28;;;9.32;76.57
19259;BME280;9763;48.780;9.212;2023-11-22T11:44:33;99392.19;;;9.24;76.75
19259;BME280;9763;48.780;9.212;2023-11-22T11:47:57;99392.66;;;9.13;76.58
19259;BME280;9763;48.780;9.212;2023-11-22T11:51:25;99401.84;;;9.01;75.68
19259;BME280;9763;48.780;9.212;2023-11-22T11:54:51;99422.28;;;8.90;75.89
19259;BME280;9763;48.780;9.212;2023-11-22T11:58:16;99423.34;;;8.85;77.20
19259;BME280;9763;48.780;9.212;2023-11-22T12:01:39;99424.22;;;8.85;77.65
19259;BME280;9763;48.780;9.212;2023-11-22T12:05:06;99422.50;;;8.84;77.62
19259;BME280;9763;48.780;9.212;2023-11-22T12:08:34;99432.75;;;8.89;77.53
19259;BME280;9763;48.780;9.212;2023-11-22T12:12:00;99449.16;;;8.91;77.12
19259;BME280;9763;48.780;9.212;2023-11-22T12:15:25;99443.88;;;8.92;77.61
19259;BME280;9763;48.780;9.212;2023-11-22T12:18:51;99446.56;;;8.91;77.32
19259;BME280;9763;48.780;9.212;2023-11-22T12:22:16;99459.50;;;8.92;77.40
19259;BME280;9763;48.780;9.212;2023-11-22T12:25:43;99468.16;;;8.93;77.03
19259;BME280;9763;48.780;9.212;2023-11-22T12:29:07;99465.63;;;8.91;77.46
19259;BME280;9763;48.780;9.212;2023-11-22T12:32:32;99471.84;;;8.87;77.11
19259;BME280;9763;48.780;9.212;2023-11-22T12:35:57;99481.53;;;8.84;77.74
19259;BME280;9763;48.780;9.212;2023-11-22T12:39:22;99485.94;;;8.82;77.34
19259;BME280;9763;48.780;9.212;2023-11-22T12:42:49;99483.34;;;8.82;77.63
19259;BME280;9763;48.780;9.212;2023-11-22T12:46:15;99467.72;;;8.82;77.63
19259;BME280;9763;48.780;9.212;2023-11-22T12:49:44;99443.66;;;8.77;77.52
19259;BME280;9763;48.780;9.212;2023-11-22T12:53:09;99453.56;;;8.89;77.53
19259;BME280;9763;48.780;9.212;2023-11-22T12:56:33;99454.34;;;8.91;78.01
19259;BME280;9763;48.780;9.212;2023-11-22T13:00:00;99463.03;;;8.91;77.83
19259;BME280;9763;48.780;9.212;2023-11-22T13:03:28;99446.50;;;8.92;77.13
19259;BME280;9763;48.780;9.212;2023-11-22T13:06:54;99439.53;;;8.93;77.75
19259;BME280;9763;48.780;9.212;2023-11-22T13:10:19;99451.69;;;8.92;77.28
19259;BME280;9763;48.780;9.212;2023-11-22T13:13:48;99445.75;;;8.89;77.38
19259;BME280;9763;48.780;9.212;2023-11-22T13:17:13;99446.56;;;8.91;77.95
19259;BME280;9763;48.780;9.212;2023-11-22T13:20:37;99442.13;;;8.93;77.26
19259;BME280;9763;48.780;9.212;2023-11-22T13:24:09;99451.53;;;8.95;77.78
19259;BME280;9763;48.780;9.212;2023-11-22T13:27:34;99454.22;;;8.94;77.50
19259;BME280;9763;48.780;9.212;2023-11-22T13:30:58;99464.56;;;8.95;77.39
19259;BME280;9763;48.780;9.212;2023-11-22T13:34:24;99474.00;;;8.98;78.10
19259;BME280;9763;48.780;9.212;2023-11-22T13:37:49;99472.25;;;8.98;78.11
19259;BME280;9763;48.780;9.212;2023-11-22T13:41:12;99473.16;;;8.97;78.07
19259;BME280;9763;48.780;9.212;2023-11-22T13:44:37;99464.50;;;8.97;77.70
19259;BME280;9763;48.780;9.212;2023-11-22T13:48:00;99463.59;;;8.98;77.63
19259;BME280;9763;48.780;9.212;2023-11-22T13:51:28;99441.06;;;8.97;77.65
19259;BME280;9763;48.780;9.212;2023-11-22T13:54:52;99446.28;;;8.97;77.33
19259;BME280;9763;48.780;9.212;2023-11-22T13:58:19;99451.47;;;8.97;77.14
19259;BME280;9763;48.780;9.212;2023-11-22T14:01:42;99451.44;;;8.98;76.82
19259;BME280;9763;48.780;9.212;2023-11-22T14:05:08;99448.81;;;8.98;76.69
19259;BME280;9763;48.780;9.212;2023-11-22T14:08:35;99440.16;;;8.98;77.54
19259;BME280;9763;48.780;9.212;2023-11-22T14:11:59;99447.91;;;8.99;76.98
19259;BME280;9763;48.780;9.212;2023-11-22T14:15:24;99471.47;;;8.96;76.76
19259;BME280;9763;48.780;9.212;2023-11-22T14:18:47;99466.53;;;8.90;76.25
19259;BME280;9763;48.780;9.212;2023-11-22T14:22:12;99467.63;;;8.85;76.62
19259;BME280;9763;48.780;9.212;2023-11-22T14:25:37;99477.44;;;8.78;76.60
19259;BME280;9763;48.780;9.212;2023-11-22T14:29:04;99487.22;;;8.72;76.57
19259;BME280;9763;48.780;9.212;2023-11-22T14:32:29;99493.34;;;8.71;77.31
19259;BME280;9763;48.780;9.212;2023-11-22T14:35:53;99498.63;;;8.69;76.77
19259;BME280;9763;48.780;9.212;2023-11-22T14:39:17;99503.00;;;8.69;77.05
19259;BME280;9763;48.780;9.212;2023-11-22T14:42:43;99496.25;;;8.63;77.16
19259;BME280;9763;48.780;9.212;2023-11-22T14:46:10;99505.50;;;8.70;77.49
19259;BME280;9763;48.780;9.212;2023-11-22T14:49:33;99500.38;;;8.69;76.76
19259;BME280;9763;48.780;9.212;2023-11-22T14:53:09;99481.56;;;8.62;77.22
19259;BME280;9763;48.780;9.212;2023-11-22T14:56:33;99484.09;;;8.63;77.52
19259;BME280;9763;48.780;9.212;2023-11-22T14:59:58;99486.69;;;8.63;77.36
19259;BME280;9763;48.780;9.212;2023-11-22T15:03:23;99478.84;;;8.65;77.36
19259;BME280;9763;48.780;9.212;2023-11-22T15:06:50;99480.72;;;8.61;77.29
19259;BME280;9763;48.780;9.212;2023-11-22T15:10:15;99478.94;;;8.62;77.36
19259;BME280;9763;48.780;9.212;2023-11-22T15:13:38;99476.97;;;8.69;76.67
19259;BME280;9763;48.780;9.212;2023-11-22T15:17:03;99476.19;;;8.66;77.26
19259;BME280;9763;48.780;9.212;2023-11-22T15:20:27;99470.97;;;8.66;76.70
19259;BME280;9763;48.780;9.212;2023-11-22T15:23:51;99478.00;;;8.64;77.17
19259;BME280;9763;48.780;9.212;2023-11-22T15:27:15;99485.78;;;8.64;76.57
19259;BME280;9763;48.780;9.212;2023-11-22T15:30:39;99498.88;;;8.63;77.19
19259;BME280;9763;48.780;9.212;2023-11-22T15:34:04;99490.31;;;8.59;77.19
19259;BME280;9763;48.780;9.212;2023-11-22T15:37:29;99497.34;;;8.57;76.51
19259;BME280;9763;48.780;9.212;2023-11-22T15:40:53;99510.50;;;8.54;76.70
19259;BME280;9763;48.780;9.212;2023-11-22T15:44:28;99508.84;;;8.52;76.64
19259;BME280;9763;48.780;9.212;2023-11-22T15:47:52;99498.44;;;8.52;77.29
19259;BME280;9763;48.780;9.212;2023-11-22T15:51:17;99506.31;;;8.50;76.94
19259;BME280;9763;48.780;9.212;2023-11-22T15:54:40;99511.66;;;8.46;77.22
19259;BME280;9763;48.780;9.212;2023-11-22T15:58:05;99520.41;;;8.45;77.45
19259;BME280;9763;48.780;9.212;2023-11-22T16:01:29;99525.53;;;8.46;77.54
19259;BME280;9763;48.780;9.212;2023-11-22T16:04:53;99523.00;;;8.45;77.08
19259;BME280;9763;48.780;9.212;2023-11-22T16:08:18;99529.72;;;8.50;77.65
19259;BME280;9763;48.780;9.212;2023-11-22T16:11:42;99534.88;;;8.52;77.27
19259;BME280;9763;48.780;9.212;2023-11-22T16:15:07;99534.00;;;8.51;77.00
19259;BME280;9763;48.780;9.212;2023-11-22T16:18:31;99543.56;;;8.51;76.93
19259;BME280;9763;48.780;9.212;2023-11-22T16:21:55;99538.44;;;8.49;77.47
19259;BME280;9763;48.780;9.212;2023-11-22T16:25:20;99523.91;;;8.44;77.10
19259;BME280;9763;48.780;9.212;2023-11-22T16:28:47;99535.03;;;8.47;77.51
19259;BME280;9763;48.780;9.212;2023-11-22T16:32:11;99523.91;;;8.44;76.93
19259;BME280;9763;48.780;9.212;2023-11-22T16:35:35;99532.56;;;8.44;76.92
19259;BME280;9763;48.780;9.212;2023-11-22T16:38:59;99544.66;;;8.45;77.11
19259;BME280;9763;48.780;9.212;2023-11-22T16:42:26;99555.00;;;8.47;76.95
19259;BME280;9763;48.780;9.212;2023-11-22T16:45:51;99564.75;;;8.42;76.57
19259;BME280;9763;48.780;9.212;2023-11-22T16:49:15;99565.00;;;8.34;76.76
19259;BME280;9763;48.780;9.212;2023-11-22T16:52:40;99568.66;;;8.28;76.14
19259;BME280;9763;48.780;9.212;2023-11-22T16:56:06;99568.13;;;8.20;76.20
19259;BME280;9763;48.780;9.212;2023-11-22T16:59:31;99563.81;;;8.19;76.53
19259;BME280;9763;48.780;9.212;2023-11-22T17:02:55;99551.88;;;8.14;77.06
19259;BME280;9763;48.780;9.212;2023-11-22T17:06:22;99560.81;;;8.07;76.22
19259;BME280;9763;48.780;9.212;2023-11-22T17:09:47;99554.03;;;8.03;76.98
19259;BME280;9763;48.780;9.212;2023-11-22T17:13:11;99561.88;;;8.01;77.24
19259;BME280;9763;48.780;9.212;2023-11-22T17:16:37;99570.66;;;7.97;77.11
19259;BME280;9763;48.780;9.212;2023-11-22T17:20:01;99571.66;;;7.94;76.70
19259;BME280;9763;48.780;9.212;2023-11-22T17:23:26;99579.44;;;7.94;76.84
19259;BME280;9763;48.780;9.212;2023-11-22T17:26:50;99590.66;;;7.97;76.95
19259;BME280;9763;48.780;9.212;2023-11-22T17:30:16;99597.50;;;7.97;77.29
19259;BME280;9763;48.780;9.212;2023-11-22T17:33:41;99607.25;;;7.92;76.72
19259;BME280;9763;48.780;9.212;2023-11-22T17:37:06;99607.50;;;7.85;76.79
19259;BME280;9763;48.780;9.212;2023-11-22T17:40:31;99613.53;;;7.85;76.75
19259;BME280;9763;48.780;9.212;2023-11-22T17:43:55;99610.09;;;7.85;77.00
19259;BME280;9763;48.780;9.212;2023-11-22T17:47:19;99617.13;;;7.83;77.59
19259;BME280;9763;48.780;9.212;2023-11-22T17:50:44;99629.31;;;7.81;77.53
19259;BME280;9763;48.780;9.212;2023-11-22T17:54:08;99631.16;;;7.77;77.58
19259;BME280;9763;48.780;9.212;2023-11-22T17:57:32;99620.09;;;7.72;77.29
19259;BME280;9763;48.780;9.212;2023-11-22T18:00:55;99626.13;;;7.73;77.36
19259;BME280;9763;48.780;9.212;2023-11-22T18:04:19;99632.22;;;7.72;77.34
19259;BME280;9763;48.780;9.212;2023-11-22T18:07:45;99636.63;;;7.70;77.10
19259;BME280;9763;48.780;9.212;2023-11-22T18:11:08;99641.09;;;7.65;76.79
19259;BME280;9763;48.780;9.212;2023-11-22T18:14:34;99625.75;;;7.58;77.49
19259;BME280;9763;48.780;9.212;2023-11-22T18:17:58;99627.31;;;7.63;77.38
19259;BME280;9763;48.780;9.212;2023-11-22T18:21:22;99619.38;;;7.67;77.78
19259;BME280;9763;48.780;9.212;2023-11-22T18:24:48;99615.78;;;7.71;77.54
19259;BME280;9763;48.780;9.212;2023-11-22T18:28:12;99611.25;;;7.76;78.11
19259;BME280;9763;48.780;9.212;2023-11-22T18:31:35;99611.97;;;7.81;78.00
19259;BME280;9763;48.780;9.212;2023-11-22T18:34:59;99619.72;;;7.83;77.93